Time;durP1;ratioP1;P1;durP2;ratioP2;P2;SDS_P1;SDS_P2;PMS_P1;PMS_P2;Temp;Humidity;BMP_temperature;BMP_pressure;BME280_temperature;BME280_humidity;BME280_pressure;Samples;Min_cycle;Max_cycle;Signal;HPM_P1;HPM_P2
2024/03/06 00:00:25;;;;;;;8.10;4.30;;;1.10;94.00;;;;;;5035054;28;20037;-63
2024/03/06 00:02:51;;;;;;;7.60;3.53;;;1.10;94.20;;;;;;5037185;28;20397;-63
2024/03/06 00:05:17;;;;;;;7.82;3.60;;;1.00;94.20;;;;;;5037267;28;20417;-64
2024/03/06 00:07:42;;;;;;;9.55;4.53;;;1.00;94.30;;;;;;5042539;28;20037;-65
2024/03/06 00:10:08;;;;;;;6.82;3.50;;;1.00;94.50;;;;;;5034304;28;20041;-63
2024/03/06 00:12:34;;;;;;;9.40;4.22;;;1.00;94.60;;;;;;5037481;28;20526;-64
2024/03/06 00:14:59;;;;;;;7.80;4.03;;;0.90;94.80;;;;;;5039098;28;20033;-65
2024/03/06 00:17:25;;;;;;;7.97;3.83;;;0.90;94.70;;;;;;5035228;28;20087;-65
2024/03/06 00:19:51;;;;;;;7.80;4.07;;;0.90;94.80;;;;;;5042166;28;20045;-65
2024/03/06 00:22:17;;;;;;;9.75;4.15;;;0.80;94.80;;;;;;5034909;28;20415;-65
2024/03/06 00:24:42;;;;;;;6.45;3.13;;;0.80;94.80;;;;;;5031499;28;20036;-65
2024/03/06 00:27:08;;;;;;;7.57;3.85;;;0.70;95.00;;;;;;5035101;28;20045;-64
2024/03/06 00:29:36;;;;;;;7.50;3.67;;;0.70;95.10;;;;;;5031344;28;20033;-64
2024/03/06 00:32:02;;;;;;;10.63;4.22;;;0.70;95.00;;;;;;5028553;28;20134;-64
2024/03/06 00:34:27;;;;;;;8.32;4.15;;;0.70;95.20;;;;;;5035470;28;20101;-64
2024/03/06 00:36:54;;;;;;;9.70;4.85;;;0.80;95.20;;;;;;5031065;28;20275;-65
2024/03/06 00:39:20;;;;;;;8.52;3.30;;;0.70;95.10;;;;;;5033731;28;20033;-65
2024/03/06 00:41:45;;;;;;;7.35;3.72;;;0.80;95.10;;;;;;5035860;28;20286;-65
2024/03/06 00:44:11;;;;;;;7.78;4.20;;;0.90;95.20;;;;;;5033779;28;20044;-64
2024/03/06 00:46:36;;;;;;;9.07;4.53;;;1.00;95.10;;;;;;5032256;28;20097;-65
2024/03/06 00:49:02;;;;;;;9.02;3.80;;;1.00;95.10;;;;;;5035470;28;20159;-64
2024/03/06 00:51:27;;;;;;;7.32;3.85;;;1.10;95.10;;;;;;5034826;28;20085;-65
2024/03/06 00:53:53;;;;;;;7.63;3.95;;;1.10;95.00;;;;;;5036054;28;20032;-65
2024/03/06 00:56:18;;;;;;;9.25;4.38;;;1.20;94.90;;;;;;5051736;28;20151;-65
2024/03/06 00:58:44;;;;;;;10.45;5.07;;;1.20;94.90;;;;;;5036778;28;20116;-64
2024/03/06 01:01:09;;;;;;;7.05;3.35;;;1.20;94.80;;;;;;5036426;28;20480;-65
2024/03/06 01:03:37;;;;;;;7.18;3.95;;;1.30;94.80;;;;;;5039146;28;20390;-64
2024/03/06 01:06:02;;;;;;;12.15;4.35;;;1.30;94.60;;;;;;5035615;28;20082;-64
2024/03/06 01:08:28;;;;;;;8.35;3.72;;;1.30;94.60;;;;;;5034078;28;20033;-64
2024/03/06 01:10:53;;;;;;;8.05;4.43;;;1.20;94.50;;;;;;5035034;28;20118;-64
2024/03/06 01:13:20;;;;;;;8.65;4.20;;;1.20;94.50;;;;;;5032394;28;20478;-65
2024/03/06 01:15:45;;;;;;;8.35;3.88;;;1.10;94.60;;;;;;5030083;28;20142;-64
2024/03/06 01:18:11;;;;;;;8.60;4.13;;;1.10;94.70;;;;;;5027951;28;20022;-64
2024/03/06 01:20:37;;;;;;;7.47;3.83;;;1.00;94.80;;;;;;5032155;28;20397;-64
2024/03/06 01:23:02;;;;;;;9.00;4.32;;;0.90;94.90;;;;;;5028890;28;20102;-64
2024/03/06 01:25:28;;;;;;;10.38;4.50;;;0.80;95.00;;;;;;5028188;28;20120;-64
2024/03/06 01:27:53;;;;;;;8.00;3.70;;;0.70;95.00;;;;;;5029719;28;20033;-64
2024/03/06 01:30:19;;;;;;;7.95;3.83;;;0.60;95.20;;;;;;5029955;28;20118;-65
2024/03/06 01:32:44;;;;;;;9.88;4.15;;;0.60;95.20;;;;;;5032070;28;20033;-65
2024/03/06 01:35:10;;;;;;;9.23;4.00;;;0.40;95.30;;;;;;5028404;28;20334;-65
2024/03/06 01:37:35;;;;;;;6.93;3.80;;;0.40;95.40;;;;;;5032378;28;20041;-62
2024/03/06 01:40:04;;;;;;;7.28;3.92;;;0.40;95.70;;;;;;5034049;28;20507;-64
2024/03/06 01:42:29;;;;;;;8.60;4.22;;;0.30;95.70;;;;;;5030278;28;20053;-64
2024/03/06 01:44:54;;;;;;;8.07;3.83;;;0.30;95.90;;;;;;5032149;28;20141;-63
2024/03/06 01:47:20;;;;;;;8.55;3.60;;;0.30;96.10;;;;;;5033926;28;20057;-64
2024/03/06 01:49:46;;;;;;;10.43;4.00;;;0.30;96.20;;;;;;5031000;28;20033;-63
2024/03/06 01:52:14;;;;;;;8.20;4.22;;;0.30;96.30;;;;;;5030981;28;20427;-64
2024/03/06 01:54:40;;;;;;;7.22;3.88;;;0.30;96.40;;;;;;5037874;28;20406;-63
2024/03/06 01:57:08;;;;;;;9.65;4.47;;;0.30;96.50;;;;;;5035972;28;20029;-63
2024/03/06 01:59:33;;;;;;;10.13;4.78;;;0.30;96.50;;;;;;5040274;28;20044;-63
2024/03/06 02:02:01;;;;;;;7.55;3.90;;;0.40;96.70;;;;;;5035728;28;20454;-63
2024/03/06 02:04:28;;;;;;;9.98;4.30;;;0.30;96.60;;;;;;5038550;28;20151;-63
2024/03/06 02:06:54;;;;;;;9.02;4.32;;;0.30;96.80;;;;;;5034829;28;20025;-64
2024/03/06 02:09:20;;;;;;;11.02;4.50;;;0.40;96.80;;;;;;5035480;28;20548;-63
2024/03/06 02:11:46;;;;;;;11.25;4.30;;;0.40;96.80;;;;;;5038460;28;20180;-64
2024/03/06 02:14:12;;;;;;;9.63;4.32;;;0.40;96.90;;;;;;5040115;28;20590;-64
2024/03/06 02:16:39;;;;;;;7.85;3.75;;;0.40;96.90;;;;;;5035790;28;20089;-64
2024/03/06 02:19:05;;;;;;;6.72;4.10;;;0.40;96.90;;;;;;5039416;28;20045;-63
2024/03/06 02:21:30;;;;;;;7.97;4.10;;;0.40;96.90;;;;;;5038410;28;20033;-63
2024/03/06 02:23:56;;;;;;;10.35;4.00;;;0.40;97.00;;;;;;5037847;28;20024;-64
2024/03/06 02:26:22;;;;;;;10.20;4.75;;;0.40;97.00;;;;;;5038679;28;20030;-64
2024/03/06 02:28:49;;;;;;;9.02;4.18;;;0.40;97.00;;;;;;5034791;28;20092;-64
2024/03/06 02:31:16;;;;;;;11.25;5.00;;;0.50;97.10;;;;;;5034926;28;20102;-65
2024/03/06 02:33:41;;;;;;;8.60;4.07;;;0.50;97.10;;;;;;5039702;28;20118;-64
2024/03/06 02:36:07;;;;;;;9.10;4.35;;;0.40;97.10;;;;;;5032657;28;20138;-64
2024/03/06 02:38:32;;;;;;;11.68;4.30;;;0.40;97.20;;;;;;5040089;28;20068;-64
2024/03/06 02:40:58;;;;;;;9.23;4.50;;;0.40;97.20;;;;;;5040692;28;20963;-65
2024/03/06 02:43:23;;;;;;;10.88;5.05;;;0.40;97.20;;;;;;5041516;28;20104;-64
2024/03/06 02:45:49;;;;;;;8.80;4.50;;;0.30;97.20;;;;;;5032876;28;20041;-65
2024/03/06 02:48:14;;;;;;;8.95;4.43;;;0.30;97.30;;;;;;5037610;28;20140;-64
2024/03/06 02:50:40;;;;;;;8.70;4.28;;;0.20;97.30;;;;;;5037855;28;20059;-64
2024/03/06 02:53:06;;;;;;;9.05;4.53;;;0.20;97.40;;;;;;5039116;28;20418;-64
2024/03/06 02:55:31;;;;;;;10.75;5.00;;;0.10;97.40;;;;;;5038263;28;20033;-64
2024/03/06 02:57:57;;;;;;;7.20;3.80;;;0.10;97.40;;;;;;5033191;28;20373;-64
2024/03/06 03:00:22;;;;;;;9.50;4.10;;;0.10;97.50;;;;;;5038929;28;20044;-64
2024/03/06 03:02:48;;;;;;;10.48;4.22;;;0.00;97.50;;;;;;5041036;28;20124;-64
2024/03/06 03:05:13;;;;;;;11.30;4.88;;;0.00;97.60;;;;;;5034807;28;20439;-64
2024/03/06 03:07:39;;;;;;;9.55;4.55;;;0.00;97.70;;;;;;5034370;28;20037;-64
2024/03/06 03:10:05;;;;;;;9.10;4.70;;;0.00;97.80;;;;;;5038838;28;20036;-64
2024/03/06 03:12:30;;;;;;;10.57;5.32;;;0.00;97.80;;;;;;5037172;28;20151;-64
2024/03/06 03:14:56;;;;;;;8.93;3.97;;;0.00;97.90;;;;;;5040094;28;20033;-64
2024/03/06 03:17:21;;;;;;;10.60;4.40;;;0.00;98.00;;;;;;5038787;28;20037;-64
2024/03/06 03:19:47;;;;;;;8.23;3.95;;;0.00;98.10;;;;;;5036663;28;20494;-63
2024/03/06 03:22:13;;;;;;;11.65;4.68;;;0.00;98.10;;;;;;5034692;28;20025;-63
2024/03/06 03:24:41;;;;;;;11.45;4.50;;;0.00;98.20;;;;;;5037927;28;20060;-65
2024/03/06 03:27:06;;;;;;;9.98;4.18;;;0.00;98.20;;;;;;5029789;28;20034;-63
2024/03/06 03:29:32;;;;;;;9.73;4.03;;;0.00;98.30;;;;;;5036089;28;20078;-64
2024/03/06 03:31:58;;;;;;;10.20;4.13;;;0.00;98.20;;;;;;5031904;28;20082;-64
2024/03/06 03:34:23;;;;;;;7.70;3.88;;;0.00;98.30;;;;;;5033307;28;20038;-64
2024/03/06 03:36:49;;;;;;;13.77;5.20;;;0.00;98.30;;;;;;5036382;28;20029;-64
2024/03/06 03:39:17;;;;;;;10.07;4.50;;;0.00;98.30;;;;;;5035761;28;20438;-64
2024/03/06 03:41:46;;;;;;;9.68;5.25;;;0.00;98.40;;;;;;5036525;28;20049;-64
2024/03/06 03:44:13;;;;;;;12.23;5.03;;;0.00;98.50;;;;;;5036642;28;20078;-64
2024/03/06 03:46:39;;;;;;;10.30;4.55;;;0.00;98.60;;;;;;5034441;28;20517;-64
2024/03/06 03:49:04;;;;;;;9.77;4.22;;;0.00;98.60;;;;;;5036489;28;20048;-64
2024/03/06 03:51:30;;;;;;;7.82;4.28;;;0.00;98.70;;;;;;5031698;28;20508;-64
2024/03/06 03:53:55;;;;;;;10.98;4.90;;;0.10;98.70;;;;;;5037779;28;20104;-67
2024/03/06 03:56:21;;;;;;;9.90;4.68;;;0.00;98.70;;;;;;5041103;28;20159;-64
2024/03/06 03:58:47;;;;;;;10.98;4.35;;;0.00;98.80;;;;;;5035352;28;20071;-64
2024/03/06 04:01:12;;;;;;;8.23;4.60;;;0.00;98.80;;;;;;5036336;28;20035;-64
2024/03/06 04:03:38;;;;;;;12.20;5.78;;;0.00;98.70;;;;;;5033336;28;20170;-64
2024/03/06 04:06:04;;;;;;;10.88;4.93;;;0.10;98.90;;;;;;5037946;28;20453;-64
2024/03/06 04:08:29;;;;;;;13.20;4.80;;;0.00;98.80;;;;;;5036975;28;20156;-64
2024/03/06 04:10:55;;;;;;;12.20;4.80;;;0.00;98.80;;;;;;5032240;28;20445;-64
2024/03/06 04:13:21;;;;;;;10.20;4.60;;;0.00;99.00;;;;;;5031849;28;20045;-64
2024/03/06 04:15:46;;;;;;;10.35;5.35;;;0.00;98.90;;;;;;5035311;28;20029;-64
2024/03/06 04:18:12;;;;;;;12.25;4.85;;;0.00;99.00;;;;;;5038492;28;20037;-63
2024/03/06 04:20:37;;;;;;;9.90;4.60;;;0.00;99.00;;;;;;5041941;28;20033;-64
2024/03/06 04:23:03;;;;;;;10.38;4.43;;;0.00;99.00;;;;;;5041226;28;20037;-65
2024/03/06 04:25:29;;;;;;;11.00;4.70;;;0.00;99.00;;;;;;5043716;28;20029;-64
2024/03/06 04:27:54;;;;;;;9.75;4.47;;;0.00;99.10;;;;;;5031533;28;20079;-65
2024/03/06 04:30:20;;;;;;;8.65;4.38;;;0.00;99.10;;;;;;5038981;28;20105;-64
2024/03/06 04:32:46;;;;;;;9.80;4.38;;;0.00;99.20;;;;;;5026791;28;20666;-64
2024/03/06 04:35:12;;;;;;;10.15;4.95;;;0.00;99.10;;;;;;5037391;28;20132;-64
2024/03/06 04:37:37;;;;;;;11.90;4.47;;;0.00;99.20;;;;;;5035876;28;20029;-64
2024/03/06 04:40:07;;;;;;;9.55;4.43;;;0.00;99.20;;;;;;5035081;28;20029;-65
2024/03/06 04:42:35;;;;;;;10.48;4.47;;;0.00;99.30;;;;;;5030411;28;20104;-64
2024/03/06 04:45:01;;;;;;;8.15;3.45;;;0.00;99.30;;;;;;5033649;28;20029;-66
2024/03/06 04:47:27;;;;;;;9.27;3.97;;;0.00;99.40;;;;;;5031822;28;20180;-64
2024/03/06 04:49:52;;;;;;;8.45;3.95;;;0.00;99.50;;;;;;5031921;28;20167;-64
2024/03/06 04:52:18;;;;;;;10.57;4.13;;;0.10;99.60;;;;;;5034017;28;20335;-64
2024/03/06 04:54:43;;;;;;;11.95;5.13;;;0.10;99.50;;;;;;5035710;28;20036;-64
2024/03/06 04:57:09;;;;;;;9.85;4.82;;;0.10;99.50;;;;;;5032582;28;20075;-64
2024/03/06 04:59:34;;;;;;;11.02;4.38;;;0.10;99.50;;;;;;5033741;28;20095;-64
2024/03/06 05:02:00;;;;;;;11.38;4.03;;;0.00;99.50;;;;;;5030236;28;20026;-64
2024/03/06 05:04:25;;;;;;;9.02;4.72;;;0.00;99.60;;;;;;5035266;28;20334;-64
2024/03/06 05:06:50;;;;;;;10.23;3.88;;;0.00;99.60;;;;;;5034409;28;20048;-64
2024/03/06 05:09:17;;;;;;;9.80;4.72;;;0.00;99.60;;;;;;5040174;28;20132;-64
2024/03/06 05:11:42;;;;;;;10.35;4.47;;;0.00;99.60;;;;;;5032459;28;20066;-64
2024/03/06 05:14:07;;;;;;;7.70;3.90;;;0.00;99.70;;;;;;5031753;28;20087;-64
2024/03/06 05:16:33;;;;;;;11.30;5.00;;;-3276.70;99.50;;;;;;5037531;28;20029;-64
2024/03/06 05:18:59;;;;;;;10.38;4.47;;;0.00;99.70;;;;;;5038296;28;20033;-66
2024/03/06 05:21:24;;;;;;;8.32;4.53;;;0.10;99.90;;;;;;5037838;28;20070;-65
2024/03/06 05:23:50;;;;;;;6.95;4.30;;;0.20;99.90;;;;;;5036083;28;20029;-64
2024/03/06 05:26:16;;;;;;;10.00;4.35;;;0.30;99.90;;;;;;5032760;28;20052;-64
2024/03/06 05:28:41;;;;;;;11.48;4.93;;;0.30;99.90;;;;;;5034449;28;20086;-62
2024/03/06 05:31:17;;;;;;;8.57;4.82;;;0.40;99.90;;;;;;5027911;28;20045;-63
2024/03/06 05:33:43;;;;;;;10.73;4.88;;;0.50;99.90;;;;;;5035300;28;20113;-62
2024/03/06 05:36:09;;;;;;;10.60;4.68;;;0.60;99.90;;;;;;5038255;28;20358;-63
2024/03/06 05:38:34;;;;;;;8.48;4.63;;;0.60;99.90;;;;;;5042740;28;20032;-62
2024/03/06 05:41:00;;;;;;;11.10;5.30;;;0.70;99.90;;;;;;5055277;28;20037;-62
2024/03/06 05:43:26;;;;;;;12.30;5.65;;;0.80;99.90;;;;;;5033721;28;20100;-62
2024/03/06 05:45:51;;;;;;;10.63;4.82;;;0.80;99.90;;;;;;5037980;28;20037;-63
2024/03/06 05:48:17;;;;;;;8.25;4.53;;;0.90;99.90;;;;;;5032513;28;20157;-62
2024/03/06 05:50:44;;;;;;;11.00;5.13;;;0.90;99.90;;;;;;5037395;28;20029;-63
2024/03/06 05:53:11;;;;;;;10.43;4.70;;;1.00;99.90;;;;;;5033705;28;20072;-63
2024/03/06 05:55:37;;;;;;;14.43;5.07;;;1.00;99.90;;;;;;5033890;28;20125;-62
2024/03/06 05:58:02;;;;;;;11.43;5.32;;;1.00;99.80;;;;;;5030595;28;20163;-63
2024/03/06 06:00:27;;;;;;;11.65;4.78;;;1.00;99.80;;;;;;5034065;28;20373;-62
2024/03/06 06:02:53;;;;;;;11.80;4.53;;;1.00;99.80;;;;;;5033821;28;20026;-63
2024/03/06 06:05:19;;;;;;;8.88;5.13;;;1.00;99.80;;;;;;5034231;28;20040;-64
2024/03/06 06:07:45;;;;;;;10.60;5.18;;;1.00;99.70;;;;;;5026385;28;20119;-62
2024/03/06 06:10:11;;;;;;;7.60;4.35;;;1.00;99.80;;;;;;5028183;28;20260;-63
2024/03/06 06:12:36;;;;;;;11.13;5.18;;;1.10;99.80;;;;;;5028652;28;20077;-63
2024/03/06 06:15:02;;;;;;;10.77;4.53;;;1.10;99.70;;;;;;5039583;28;20067;-63
2024/03/06 06:17:28;;;;;;;12.95;5.93;;;1.10;99.70;;;;;;5028101;28;20039;-62
2024/03/06 06:19:53;;;;;;;12.68;5.88;;;1.10;99.70;;;;;;5037334;28;20041;-62
2024/03/06 06:22:18;;;;;;;11.38;5.53;;;1.10;99.70;;;;;;5035700;28;20131;-63
2024/03/06 06:24:45;;;;;;;6.85;4.28;;;1.10;99.60;;;;;;5032801;28;20263;-63
2024/03/06 06:27:11;;;;;;;8.48;4.03;;;1.10;99.60;;;;;;5035282;28;20492;-63
2024/03/06 06:29:36;;;;;;;9.88;5.03;;;1.20;99.70;;;;;;5029969;28;20037;-62
2024/03/06 06:32:02;;;;;;;9.93;4.93;;;1.20;99.60;;;;;;5032370;28;20161;-63
2024/03/06 06:34:28;;;;;;;11.02;4.47;;;1.20;99.60;;;;;;5034162;28;20105;-63
2024/03/06 06:36:54;;;;;;;12.25;5.80;;;1.30;99.70;;;;;;5036522;28;20032;-63
2024/03/06 06:39:19;;;;;;;10.27;4.88;;;1.40;99.60;;;;;;5034166;28;20026;-64
2024/03/06 06:41:44;;;;;;;11.95;5.38;;;1.40;99.60;;;;;;5030149;28;20145;-62
2024/03/06 06:44:10;;;;;;;11.43;5.60;;;1.50;99.60;;;;;;5031298;28;20045;-63
2024/03/06 06:46:35;;;;;;;10.30;5.15;;;1.60;99.50;;;;;;5029848;28;20038;-62
2024/03/06 06:49:01;;;;;;;11.35;5.60;;;1.60;99.50;;;;;;5032129;28;20037;-63
2024/03/06 06:51:26;;;;;;;10.65;5.05;;;1.50;99.30;;;;;;5031570;28;20056;-64
2024/03/06 06:53:52;;;;;;;11.57;5.57;;;1.60;99.40;;;;;;5031869;28;20378;-63
2024/03/06 06:56:17;;;;;;;10.55;5.07;;;1.60;99.30;;;;;;5036220;28;20025;-64
2024/03/06 06:58:43;;;;;;;9.07;5.00;;;1.60;99.30;;;;;;5033330;28;20037;-64
2024/03/06 07:01:09;;;;;;;9.98;5.55;;;1.60;99.10;;;;;;5032923;28;20037;-63
2024/03/06 07:03:35;;;;;;;9.02;4.35;;;1.60;99.20;;;;;;5034137;28;20170;-63
2024/03/06 07:06:00;;;;;;;8.95;4.95;;;1.60;99.10;;;;;;5038324;28;20066;-63
2024/03/06 07:08:26;;;;;;;9.88;4.63;;;1.60;99.10;;;;;;5036026;28;20041;-62
2024/03/06 07:10:54;;;;;;;9.43;4.85;;;1.60;99.10;;;;;;5034994;28;20037;-64
2024/03/06 07:13:20;;;;;;;11.20;5.78;;;1.60;99.00;;;;;;5038586;28;20369;-62
2024/03/06 07:15:45;;;;;;;9.43;4.55;;;1.60;99.00;;;;;;5034995;28;20036;-62
2024/03/06 07:18:11;;;;;;;9.98;5.25;;;1.60;99.00;;;;;;5040939;28;20337;-63
2024/03/06 07:20:36;;;;;;;10.68;4.75;;;1.70;99.00;;;;;;5036860;28;20037;-62
2024/03/06 07:23:02;;;;;;;9.57;5.35;;;1.70;99.00;;;;;;5036792;28;20104;-63
2024/03/06 07:25:27;;;;;;;10.02;4.55;;;1.80;99.00;;;;;;5033314;28;20049;-63
2024/03/06 07:27:53;;;;;;;8.02;4.32;;;1.80;98.90;;;;;;5035951;28;20693;-63
2024/03/06 07:30:18;;;;;;;10.43;4.93;;;1.90;98.90;;;;;;5033712;28;20043;-62
2024/03/06 07:32:44;;;;;;;8.82;4.45;;;1.90;98.70;;;;;;5038207;28;20037;-62
2024/03/06 07:35:10;;;;;;;8.93;4.80;;;2.00;98.70;;;;;;5031572;28;20029;-63
2024/03/06 07:37:35;;;;;;;10.45;5.53;;;2.00;98.60;;;;;;5033835;28;20029;-63
2024/03/06 07:40:01;;;;;;;10.38;4.72;;;2.10;98.50;;;;;;5032695;28;20383;-63
2024/03/06 07:42:26;;;;;;;9.85;4.80;;;2.10;98.60;;;;;;5037994;28;20076;-63
2024/03/06 07:44:52;;;;;;;8.45;4.45;;;2.10;98.50;;;;;;5032019;28;20238;-64
2024/03/06 07:47:17;;;;;;;10.57;5.15;;;2.20;98.40;;;;;;5030984;28;20030;-63
2024/03/06 07:49:44;;;;;;;10.15;4.80;;;2.20;98.10;;;;;;5036719;28;20457;-65
2024/03/06 07:52:10;;;;;;;10.77;4.97;;;2.30;98.10;;;;;;5032350;28;20025;-63
2024/03/06 07:54:36;;;;;;;9.82;5.15;;;2.40;98.10;;;;;;5032852;28;20026;-64
2024/03/06 07:57:01;;;;;;;8.05;4.78;;;2.30;97.80;;;;;;5029271;28;20031;-64
2024/03/06 07:59:27;;;;;;;9.70;4.68;;;2.40;97.90;;;;;;5033342;28;20029;-65
2024/03/06 08:01:52;;;;;;;7.60;3.88;;;2.50;97.60;;;;;;5031065;28;20105;-62
2024/03/06 08:04:18;;;;;;;11.27;5.25;;;2.60;97.50;;;;;;4993398;28;20165;-62
2024/03/06 08:06:43;;;;;;;8.65;4.78;;;2.60;97.40;;;;;;5033159;28;20378;-62
2024/03/06 08:09:09;;;;;;;8.25;4.05;;;2.60;97.40;;;;;;5035858;28;20037;-63
2024/03/06 08:11:35;;;;;;;10.13;5.07;;;2.60;97.30;;;;;;5038071;28;20044;-63
2024/03/06 08:14:01;;;;;;;11.27;5.50;;;2.70;97.20;;;;;;5039709;28;20427;-64
2024/03/06 08:16:28;;;;;;;12.43;4.88;;;2.80;97.00;;;;;;5035990;28;20056;-64
2024/03/06 08:18:54;;;;;;;10.05;4.78;;;2.90;97.10;;;;;;5033698;28;20037;-63
2024/03/06 08:21:20;;;;;;;8.52;4.45;;;3.00;96.90;;;;;;5035820;28;20037;-63
2024/03/06 08:23:47;;;;;;;8.13;4.70;;;2.80;96.10;;;;;;5033733;28;20350;-62
2024/03/06 08:26:13;;;;;;;7.35;4.18;;;3.00;96.20;;;;;;5027900;28;20048;-62
2024/03/06 08:28:38;;;;;;;10.18;4.38;;;3.40;96.50;;;;;;5030829;28;20029;-63
2024/03/06 08:31:04;;;;;;;10.05;4.88;;;3.70;95.90;;;;;;5036515;28;20078;-62
2024/03/06 08:33:29;;;;;;;11.02;5.75;;;3.30;94.80;;;;;;5038131;28;20085;-63
2024/03/06 08:35:54;;;;;;;8.90;4.68;;;3.60;95.10;;;;;;5030408;28;20353;-63
2024/03/06 08:38:20;;;;;;;9.60;5.15;;;3.50;94.70;;;;;;5030309;28;20093;-64
2024/03/06 08:40:45;;;;;;;9.02;4.63;;;3.80;94.90;;;;;;5030915;28;20073;-63
2024/03/06 08:43:12;;;;;;;8.63;4.68;;;4.10;94.10;;;;;;5031804;28;20104;-63
2024/03/06 08:45:38;;;;;;;9.23;4.95;;;4.00;93.50;;;;;;5035050;28;20338;-63
2024/03/06 08:48:05;;;;;;;9.95;5.20;;;3.80;92.80;;;;;;5032344;28;20104;-64
2024/03/06 08:50:31;;;;;;;9.50;4.70;;;4.40;93.60;;;;;;5033670;28;20045;-63
2024/03/06 08:52:56;;;;;;;12.07;4.90;;;4.50;91.90;;;;;;5029990;28;20415;-63
2024/03/06 08:55:22;;;;;;;8.35;4.70;;;4.70;92.40;;;;;;5031015;28;20044;-64
2024/03/06 08:57:47;;;;;;;7.57;4.13;;;5.00;91.20;;;;;;5027679;28;20033;-63
2024/03/06 09:00:14;;;;;;;9.63;5.22;;;5.00;90.80;;;;;;5034648;28;20399;-64
2024/03/06 09:02:43;;;;;;;10.90;5.20;;;4.90;89.40;;;;;;5033108;28;20108;-64
2024/03/06 09:05:12;;;;;;;9.93;4.95;;;5.10;90.30;;;;;;5019904;28;20049;-63
2024/03/06 09:07:40;;;;;;;9.95;5.13;;;5.60;90.60;;;;;;5026657;28;20044;-65
2024/03/06 09:10:06;;;;;;;9.25;4.35;;;5.50;87.90;;;;;;5033141;28;20040;-69
2024/03/06 09:12:32;;;;;;;10.13;5.28;;;5.60;88.00;;;;;;5030255;28;20214;-61
2024/03/06 09:15:00;;;;;;;9.60;4.82;;;5.90;88.10;;;;;;5032590;28;20131;-61
2024/03/06 09:17:26;;;;;;;8.57;5.10;;;6.30;88.00;;;;;;5031157;28;20029;-62
2024/03/06 09:19:51;;;;;;;7.35;4.30;;;5.90;85.80;;;;;;5034174;28;20042;-62
2024/03/06 09:22:17;;;;;;;7.25;3.85;;;5.80;86.80;;;;;;5029715;28;20025;-63
2024/03/06 09:24:43;;;;;;;7.25;3.78;;;6.10;86.50;;;;;;5029807;28;20060;-63
2024/03/06 09:27:08;;;;;;;10.35;4.93;;;6.20;85.80;;;;;;5029217;28;20469;-64
2024/03/06 09:29:34;;;;;;;9.05;3.78;;;6.10;84.20;;;;;;5029760;28;20506;-62
2024/03/06 09:31:59;;;;;;;9.13;4.88;;;6.60;84.50;;;;;;5035504;28;20049;-63
2024/03/06 09:34:25;;;;;;;11.75;4.65;;;6.30;83.00;;;;;;5032227;28;20369;-62
2024/03/06 09:36:51;;;;;;;7.78;4.68;;;6.30;83.50;;;;;;5032937;28;20432;-62
2024/03/06 09:39:17;;;;;;;8.68;4.40;;;6.60;82.00;;;;;;5028825;28;20030;-62
2024/03/06 09:41:50;;;;;;;6.35;3.35;;;6.70;80.60;;;;;;5033768;28;20631;-61
2024/03/06 09:44:16;;;;;;;8.63;4.55;;;7.20;82.40;;;;;;5032042;28;20056;-64
2024/03/06 09:46:47;;;;;;;7.78;3.95;;;6.80;80.00;;;;;;5029924;28;20029;-62
2024/03/06 09:49:14;;;;;;;6.88;3.85;;;7.50;80.80;;;;;;5031377;28;20022;-64
2024/03/06 09:51:45;;;;;;;9.13;3.72;;;7.60;78.60;;;;;;5033286;28;20037;-62
2024/03/06 09:54:13;;;;;;;7.72;3.78;;;7.40;76.00;;;;;;5035114;28;20112;-62
2024/03/06 09:56:38;;;;;;;7.85;4.03;;;7.40;76.80;;;;;;5027903;28;20080;-62
2024/03/06 09:59:04;;;;;;;7.72;3.85;;;7.20;76.50;;;;;;5031110;28;20439;-63
2024/03/06 10:01:31;;;;;;;6.18;3.75;;;7.50;74.90;;;;;;5031362;28;23232;-63
2024/03/06 10:03:57;;;;;;;8.95;4.43;;;7.70;75.00;;;;;;5038516;28;20041;-63
2024/03/06 10:06:22;;;;;;;6.45;3.38;;;7.80;74.50;;;;;;5032979;28;20373;-63
2024/03/06 10:08:49;;;;;;;8.00;3.85;;;7.60;72.60;;;;;;5035396;28;20368;-63
2024/03/06 10:11:17;;;;;;;8.48;4.07;;;7.90;73.60;;;;;;5034497;28;20119;-63
2024/03/06 10:13:42;;;;;;;8.43;3.58;;;8.20;72.60;;;;;;5033314;28;20044;-65
2024/03/06 10:16:09;;;;;;;9.20;4.32;;;8.20;73.40;;;;;;5043575;28;20267;-63
2024/03/06 10:18:36;;;;;;;7.35;3.97;;;8.30;72.50;;;;;;5042343;28;20025;-63
2024/03/06 10:21:01;;;;;;;8.32;4.45;;;8.00;70.60;;;;;;5034927;28;20342;-63
2024/03/06 10:23:30;;;;;;;7.43;3.78;;;7.90;71.30;;;;;;5038855;28;20112;-63
2024/03/06 10:25:55;;;;;;;8.02;3.85;;;8.10;71.20;;;;;;5036253;28;20438;-63
2024/03/06 10:28:22;;;;;;;9.18;3.63;;;8.00;71.40;;;;;;5042023;28;20056;-64
2024/03/06 10:30:49;;;;;;;7.43;3.60;;;8.10;70.90;;;;;;5035298;28;20099;-64
2024/03/06 10:33:18;;;;;;;6.00;3.55;;;8.30;70.70;;;;;;5047288;28;20043;-63
2024/03/06 10:35:45;;;;;;;6.82;4.10;;;8.20;71.10;;;;;;5034880;28;20434;-63
2024/03/06 10:38:12;;;;;;;8.90;4.70;;;8.30;69.60;;;;;;5036639;28;20444;-63
2024/03/06 10:40:42;;;;;;;8.60;4.10;;;8.20;70.70;;;;;;5036168;28;20033;-62
2024/03/06 10:43:08;;;;;;;8.13;4.38;;;8.60;71.80;;;;;;5037788;28;20509;-63
2024/03/06 10:46:05;;;;;;;7.22;3.88;;;8.70;69.10;;;;;;5043528;28;20063;-64
2024/03/06 10:48:31;;;;;;;8.27;4.03;;;8.80;68.90;;;;;;5035197;28;20167;-63
2024/03/06 10:50:59;;;;;;;7.97;4.22;;;8.60;68.80;;;;;;5041741;28;20136;-63
2024/03/06 10:53:26;;;;;;;8.38;4.15;;;8.60;69.20;;;;;;5044070;28;20129;-63
2024/03/06 10:55:52;;;;;;;8.50;4.05;;;9.00;69.80;;;;;;5037067;28;20026;-63
2024/03/06 10:58:19;;;;;;;7.10;3.67;;;9.00;68.90;;;;;;5044757;28;20033;-63
2024/03/06 11:00:47;;;;;;;7.88;3.83;;;9.00;69.30;;;;;;5034454;28;20152;-63
2024/03/06 11:03:13;;;;;;;7.82;4.45;;;8.90;67.10;;;;;;5034640;28;20112;-63
2024/03/06 11:05:42;;;;;;;8.50;4.35;;;9.20;68.50;;;;;;5033461;28;20400;-63
2024/03/06 11:08:09;;;;;;;9.30;4.22;;;9.70;67.80;;;;;;5032140;28;20482;-63
2024/03/06 11:10:37;;;;;;;8.45;4.13;;;9.70;66.40;;;;;;5041387;28;20418;-63
2024/03/06 11:13:08;;;;;;;7.25;4.28;;;9.70;66.10;;;;;;5038818;28;20119;-63
2024/03/06 11:15:34;;;;;;;5.20;2.90;;;9.50;66.40;;;;;;5036826;28;20044;-64
2024/03/06 11:18:19;;;;;;;8.75;3.95;;;9.60;65.10;;;;;;5040713;28;20076;-64
2024/03/06 11:20:45;;;;;;;7.45;3.53;;;9.70;65.30;;;;;;5033218;28;20057;-64
2024/03/06 11:23:10;;;;;;;8.02;4.45;;;9.60;64.90;;;;;;5039373;28;20094;-64
2024/03/06 11:25:51;;;;;;;6.82;3.33;;;9.80;64.30;;;;;;5036154;28;20025;-65
2024/03/06 11:28:21;;;;;;;7.22;3.58;;;10.10;64.30;;;;;;5031772;28;20033;-64
2024/03/06 11:30:47;;;;;;;6.97;3.58;;;10.00;63.30;;;;;;5033698;28;20354;-64
2024/03/06 11:33:16;;;;;;;7.13;4.03;;;10.00;63.20;;;;;;5033566;28;20109;-63
2024/03/06 11:35:44;;;;;;;7.50;3.92;;;10.10;63.90;;;;;;5036106;28;20124;-64
2024/03/06 11:38:10;;;;;;;6.05;3.30;;;10.10;64.00;;;;;;5039178;28;20057;-64
2024/03/06 11:40:43;;;;;;;8.40;3.50;;;10.40;64.30;;;;;;5042783;28;20492;-63
2024/03/06 11:43:26;;;;;;;8.27;3.60;;;10.70;61.90;;;;;;5033350;28;20315;-65
2024/03/06 11:45:51;;;;;;;5.57;2.95;;;10.80;61.40;;;;;;5040416;28;20438;-64
2024/03/06 11:48:19;;;;;;;8.52;3.58;;;11.10;61.70;;;;;;5034960;28;20151;-64
2024/03/06 11:50:45;;;;;;;6.68;3.28;;;11.00;61.00;;;;;;5036981;28;20422;-66
2024/03/06 11:53:11;;;;;;;6.63;3.38;;;11.00;59.90;;;;;;5030931;28;20030;-65
2024/03/06 11:55:36;;;;;;;6.28;3.25;;;10.50;59.90;;;;;;5044429;28;20040;-64
2024/03/06 11:58:03;;;;;;;7.75;3.55;;;10.50;61.50;;;;;;5031133;28;20040;-65
2024/03/06 12:00:30;;;;;;;6.53;3.30;;;10.70;60.90;;;;;;5039397;28;20748;-65
2024/03/06 12:02:56;;;;;;;7.57;3.40;;;10.80;58.90;;;;;;5043178;28;20116;-64
2024/03/06 12:05:23;;;;;;;8.77;3.72;;;10.90;60.80;;;;;;5032563;28;20192;-64
2024/03/06 12:07:52;;;;;;;6.82;3.53;;;11.20;60.10;;;;;;5031583;28;20091;-64
2024/03/06 12:10:17;;;;;;;7.68;4.07;;;10.70;60.50;;;;;;5033083;28;20108;-64
2024/03/06 12:12:44;;;;;;;6.65;3.55;;;10.90;61.70;;;;;;5030164;28;20100;-64
2024/03/06 12:15:11;;;;;;;7.03;3.95;;;11.30;61.20;;;;;;5034684;28;21528;-66
2024/03/06 12:17:50;;;;;;;6.82;3.78;;;11.30;60.40;;;;;;5035113;28;20110;-63
2024/03/06 12:20:16;;;;;;;7.85;3.72;;;11.90;59.00;;;;;;5031708;28;20067;-64
2024/03/06 12:22:52;;;;;;;8.23;3.50;;;11.50;58.20;;;;;;5036886;28;20437;-64
2024/03/06 12:25:25;;;;;;;6.60;3.38;;;11.40;59.40;;;;;;5033750;28;20091;-63
2024/03/06 12:27:52;;;;;;;6.10;3.20;;;11.90;60.00;;;;;;5033654;28;20044;-64
2024/03/06 12:30:23;;;;;;;7.68;3.85;;;12.10;57.80;;;;;;5025742;28;20106;-64
2024/03/06 12:32:59;;;;;;;7.85;3.95;;;11.60;57.90;;;;;;5036528;28;20049;-64
2024/03/06 12:35:26;;;;;;;7.13;3.60;;;12.00;57.00;;;;;;5039469;28;20168;-64
2024/03/06 12:37:51;;;;;;;10.00;4.03;;;12.00;57.40;;;;;;5036681;28;20467;-64
2024/03/06 12:40:17;;;;;;;6.43;3.47;;;11.00;58.70;;;;;;5040424;28;20029;-64
2024/03/06 12:42:44;;;;;;;9.35;4.10;;;11.50;60.40;;;;;;5035207;28;20143;-64
2024/03/06 12:45:10;;;;;;;6.45;4.03;;;12.00;59.30;;;;;;5034906;28;20106;-65
2024/03/06 12:47:35;;;;;;;7.63;3.60;;;12.40;57.50;;;;;;5036037;28;20098;-64